createdAt,value
2018-08-18T00:00:13.220Z,99.90
2018-08-18T00:02:41.391Z,99.90
2018-08-18T00:05:10.691Z,99.90
2018-08-18T00:07:38.862Z,99.90
2018-08-18T00:10:08.380Z,99.90
2018-08-18T00:12:36.551Z,99.90
2018-08-18T00:15:05.717Z,99.90
2018-08-18T00:17:33.899Z,99.90
2018-08-18T00:20:02.103Z,99.90
2018-08-18T00:22:30.351Z,99.90
2018-08-18T00:24:59.363Z,99.90
2018-08-18T00:27:28.043Z,99.90
2018-08-18T00:30:01.419Z,99.90
2018-08-18T00:32:30.114Z,99.90
2018-08-18T00:34:58.275Z,99.90
2018-08-18T00:37:26.470Z,99.90
2018-08-18T00:39:55.346Z,99.90
2018-08-18T00:42:23.615Z,99.90
2018-08-18T00:44:51.867Z,99.90
2018-08-18T00:47:20.086Z,99.90
2018-08-18T00:49:48.261Z,99.90
2018-08-18T00:52:16.533Z,99.90
2018-08-18T00:54:44.726Z,99.90
2018-08-18T00:57:24.685Z,99.90
2018-08-18T00:59:53.636Z,99.90
2018-08-18T01:02:21.823Z,99.90
2018-08-18T01:04:55.122Z,99.90
2018-08-18T01:07:23.966Z,99.90
2018-08-18T01:09:52.181Z,99.90
2018-08-18T01:12:20.456Z,99.90
2018-08-18T01:14:48.690Z,99.90
2018-08-18T01:17:16.834Z,99.90
2018-08-18T01:19:45.031Z,99.90
2018-08-18T01:22:13.236Z,99.90
2018-08-18T01:24:41.500Z,99.90
2018-08-18T01:27:09.771Z,99.90
2018-08-18T01:29:37.874Z,99.90
2018-08-18T01:32:06.099Z,99.90
2018-08-18T01:34:34.259Z,99.90
2018-08-18T01:37:11.072Z,99.90
2018-08-18T01:39:39.271Z,99.90
2018-08-18T01:42:07.445Z,99.90
2018-08-18T01:44:35.641Z,99.90
2018-08-18T01:47:09.308Z,99.90
2018-08-18T01:49:38.060Z,99.90
2018-08-18T01:52:12.991Z,99.90
2018-08-18T01:54:41.612Z,99.90
2018-08-18T01:57:11.519Z,99.90
2018-08-18T01:59:40.990Z,99.90
2018-08-18T02:02:14.438Z,99.90
2018-08-18T02:04:43.361Z,99.90
2018-08-18T02:07:29.980Z,99.90
2018-08-18T02:09:58.426Z,99.90
2018-08-18T02:12:27.146Z,99.90
2018-08-18T02:14:55.734Z,99.90
2018-08-18T02:17:29.928Z,99.90
2018-08-18T02:19:58.522Z,99.90
2018-08-18T02:22:27.366Z,99.90
2018-08-18T02:24:55.564Z,99.90
2018-08-18T02:27:23.752Z,99.90
2018-08-18T02:30:04.510Z,99.90
2018-08-18T02:32:34.924Z,99.90
2018-08-18T02:35:03.100Z,99.90
2018-08-18T02:37:31.561Z,99.90
2018-08-18T02:39:59.975Z,99.90
2018-08-18T02:42:28.132Z,99.90
2018-08-18T02:44:56.318Z,99.90
2018-08-18T02:47:24.594Z,99.90
2018-08-18T02:49:53.858Z,99.90
2018-08-18T02:52:27.156Z,99.90
2018-08-18T02:54:57.179Z,99.90
2018-08-18T02:57:26.979Z,99.90
2018-08-18T02:59:58.105Z,99.90
2018-08-18T03:02:26.281Z,99.90
2018-08-18T03:04:54.447Z,99.90
2018-08-18T03:07:22.718Z,99.90
2018-08-18T03:09:50.958Z,99.90
2018-08-18T03:12:19.377Z,99.90
2018-08-18T03:14:47.571Z,99.90
2018-08-18T03:17:16.012Z,99.90
2018-08-18T03:19:48.523Z,99.90
2018-08-18T03:22:16.696Z,99.90
2018-08-18T03:24:44.876Z,99.90
2018-08-18T03:27:13.038Z,99.90
2018-08-18T03:29:46.628Z,99.90
2018-08-18T03:32:14.819Z,99.90
2018-08-18T03:34:42.976Z,99.90
2018-08-18T03:37:25.179Z,99.90
2018-08-18T03:39:53.374Z,99.90
2018-08-18T03:42:23.529Z,99.90
2018-08-18T03:44:54.790Z,99.90
2018-08-18T03:47:22.976Z,99.90
2018-08-18T03:49:51.161Z,99.90
2018-08-18T03:52:19.603Z,99.90
2018-08-18T03:54:47.784Z,99.90
2018-08-18T03:57:15.961Z,99.90
2018-08-18T03:59:44.164Z,99.90
2018-08-18T04:02:12.349Z,99.90
2018-08-18T04:04:40.524Z,99.90
2018-08-18T04:07:09.577Z,99.90
2018-08-18T04:09:38.854Z,99.90
2018-08-18T04:12:09.285Z,99.90
2018-08-18T04:14:38.521Z,99.90
2018-08-18T04:17:16.874Z,99.90
2018-08-18T04:19:46.447Z,99.90
2018-08-18T04:22:14.950Z,99.90
2018-08-18T04:24:45.987Z,99.90
2018-08-18T04:27:22.912Z,99.90
2018-08-18T04:29:51.356Z,99.90
2018-08-18T04:32:19.529Z,99.90
2018-08-18T04:34:47.747Z,99.90
2018-08-18T04:37:15.915Z,99.90
2018-08-18T04:39:44.097Z,99.90
2018-08-18T04:42:12.295Z,99.90
2018-08-18T04:44:40.487Z,99.90
2018-08-18T04:47:09.779Z,99.90
2018-08-18T04:49:37.957Z,99.90
2018-08-18T04:52:06.131Z,99.90
2018-08-18T04:54:34.287Z,99.90
2018-08-18T04:57:02.581Z,99.90
2018-08-18T04:59:30.747Z,99.90
2018-08-18T05:01:58.881Z,99.90
2018-08-18T05:04:27.143Z,99.90
2018-08-18T05:06:55.464Z,99.90
2018-08-18T05:09:23.652Z,99.90
2018-08-18T05:11:51.828Z,99.90
2018-08-18T05:14:19.999Z,99.90
2018-08-18T05:16:48.163Z,99.90
2018-08-18T05:19:16.448Z,99.90
2018-08-18T05:21:44.705Z,99.90
2018-08-18T05:24:25.211Z,99.90
2018-08-18T05:26:54.504Z,99.90
2018-08-18T05:29:22.879Z,99.90
2018-08-18T05:31:51.055Z,99.90
2018-08-18T05:34:19.219Z,99.90
2018-08-18T05:36:47.411Z,99.90
2018-08-18T05:39:15.577Z,99.90
2018-08-18T05:41:43.853Z,99.90
2018-08-18T05:44:12.068Z,99.90
2018-08-18T05:46:40.212Z,99.90
2018-08-18T05:49:15.582Z,99.90
2018-08-18T05:51:45.828Z,99.90
2018-08-18T05:54:15.140Z,99.90
2018-08-18T05:56:44.508Z,99.90
2018-08-18T05:59:12.703Z,99.90
2018-08-18T06:01:41.522Z,99.90
2018-08-18T06:04:12.539Z,99.90
2018-08-18T06:06:41.414Z,99.90
2018-08-18T06:09:13.576Z,99.90
2018-08-18T06:11:42.055Z,99.90
2018-08-18T06:14:11.268Z,99.90
2018-08-18T06:16:39.794Z,99.90
2018-08-18T06:19:08.041Z,99.90
2018-08-18T06:21:36.254Z,99.90
2018-08-18T06:24:04.734Z,99.90
2018-08-18T06:26:33.323Z,99.90
2018-08-18T06:29:01.475Z,99.90
2018-08-18T06:31:29.851Z,99.90
2018-08-18T06:33:58.028Z,99.90
2018-08-18T06:36:26.302Z,99.90
2018-08-18T06:38:54.626Z,99.90
2018-08-18T06:41:22.838Z,99.90
2018-08-18T06:43:51.003Z,99.90
2018-08-18T06:46:19.231Z,99.90
2018-08-18T06:48:47.415Z,99.90
2018-08-18T06:51:15.615Z,99.80
2018-08-18T06:53:46.930Z,99.40
2018-08-18T06:56:15.170Z,99.20
2018-08-18T06:58:43.394Z,98.40
2018-08-18T07:01:12.004Z,97.80
2018-08-18T07:03:42.551Z,97.60
2018-08-18T07:06:27.403Z,97.00
2018-08-18T07:08:55.750Z,96.90
2018-08-18T07:11:23.901Z,96.80
2018-08-18T07:13:52.142Z,96.40
2018-08-18T07:16:20.537Z,95.90
2018-08-18T07:18:48.810Z,95.50
2018-08-18T07:21:16.999Z,95.10
2018-08-18T07:23:45.192Z,94.50
2018-08-18T07:26:13.876Z,92.90
2018-08-18T07:28:42.124Z,91.80
2018-08-18T07:31:10.282Z,91.50
2018-08-18T07:33:38.485Z,91.40
2018-08-18T07:36:06.760Z,90.90
2018-08-18T07:38:35.052Z,90.80
2018-08-18T07:41:03.236Z,90.30
2018-08-18T07:43:34.432Z,90.10
2018-08-18T07:46:05.313Z,89.50
2018-08-18T07:48:33.712Z,89.30
2018-08-18T07:51:01.908Z,89.80
2018-08-18T07:53:31.437Z,90.00
2018-08-18T07:55:59.861Z,90.20
2018-08-18T07:58:28.051Z,90.00
2018-08-18T08:00:57.188Z,89.00
2018-08-18T08:03:25.444Z,88.50
2018-08-18T08:05:54.002Z,88.50
2018-08-18T08:08:22.833Z,87.70
2018-08-18T08:10:53.529Z,86.10
2018-08-18T08:13:21.759Z,86.80
2018-08-18T08:15:50.059Z,87.10
2018-08-18T08:18:18.321Z,87.20
2018-08-18T08:20:46.466Z,86.00
2018-08-18T08:23:15.275Z,86.30
2018-08-18T08:25:43.763Z,84.60
2018-08-18T08:28:12.114Z,84.00
2018-08-18T08:30:40.294Z,84.50
2018-08-18T08:33:08.491Z,85.20
2018-08-18T08:35:37.271Z,85.00
2018-08-18T08:38:06.888Z,84.90
2018-08-18T08:40:35.780Z,84.70
2018-08-18T08:43:04.983Z,83.80
2018-08-18T08:45:33.161Z,84.90
2018-08-18T08:48:01.505Z,85.30
2018-08-18T08:50:29.729Z,84.20
2018-08-18T08:52:58.108Z,83.40
2018-08-18T08:55:28.299Z,81.90
2018-08-18T08:57:56.545Z,82.20
2018-08-18T09:00:24.987Z,82.10
2018-08-18T09:02:53.172Z,82.80
2018-08-18T09:05:21.434Z,82.70
2018-08-18T09:07:49.741Z,80.80
2018-08-18T09:10:18.322Z,80.30
2018-08-18T09:12:46.458Z,80.20
2018-08-18T09:15:15.608Z,80.50
2018-08-18T09:17:43.831Z,80.20
2018-08-18T09:20:17.191Z,78.00
2018-08-18T09:22:55.854Z,76.70
2018-08-18T09:25:25.653Z,75.10
2018-08-18T09:27:55.950Z,73.20
2018-08-18T09:30:25.456Z,71.40
2018-08-18T09:32:53.708Z,72.50
2018-08-18T09:35:22.080Z,69.00
2018-08-18T09:37:54.712Z,67.70
2018-08-18T09:40:22.915Z,67.90
2018-08-18T09:42:51.120Z,65.90
2018-08-18T09:45:19.450Z,64.60
2018-08-18T09:47:47.639Z,63.50
2018-08-18T09:50:15.857Z,63.60
2018-08-18T09:52:44.037Z,63.40
2018-08-18T09:55:12.354Z,63.40
2018-08-18T09:57:40.623Z,60.20
2018-08-18T10:00:13.301Z,60.20
2018-08-18T10:02:41.536Z,59.60
2018-08-18T10:05:09.760Z,58.50
2018-08-18T10:07:37.934Z,57.10
2018-08-18T10:10:07.284Z,58.00
2018-08-18T10:12:35.531Z,56.90
2018-08-18T10:15:03.772Z,56.60
2018-08-18T10:17:31.983Z,56.20
2018-08-18T10:21:03.182Z,55.30
2018-08-18T10:23:31.363Z,55.20
2018-08-18T10:25:59.564Z,54.10
2018-08-18T10:28:27.752Z,53.60
2018-08-18T10:30:55.977Z,54.40
2018-08-18T10:33:24.412Z,53.10
2018-08-18T10:35:52.576Z,52.70
2018-08-18T10:38:20.875Z,52.60
2018-08-18T10:40:49.084Z,52.90
2018-08-18T10:43:17.383Z,52.80
2018-08-18T10:45:45.704Z,53.10
2018-08-18T10:48:14.108Z,52.60
2018-08-18T10:50:53.797Z,50.80
2018-08-18T10:53:21.987Z,50.70
2018-08-18T10:55:50.187Z,50.20
2018-08-18T10:58:34.239Z,50.50
2018-08-18T11:01:03.434Z,51.30
2018-08-18T11:03:31.752Z,51.00
2018-08-18T11:06:00.116Z,50.70
2018-08-18T11:08:28.625Z,50.20
2018-08-18T11:10:56.851Z,50.10
2018-08-18T11:13:25.099Z,49.00
2018-08-18T11:15:53.302Z,48.70
2018-08-18T11:18:21.524Z,48.00
2018-08-18T11:20:49.731Z,48.00
2018-08-18T11:23:17.971Z,48.20
2018-08-18T11:25:48.539Z,47.70
2018-08-18T11:28:17.264Z,47.30
2018-08-18T11:30:45.699Z,45.80
2018-08-18T11:33:26.356Z,45.70
2018-08-18T11:35:54.955Z,45.60
2018-08-18T11:38:23.343Z,45.60
2018-08-18T11:40:51.595Z,45.70
2018-08-18T11:43:20.240Z,45.40
2018-08-18T11:45:49.310Z,46.40
2018-08-18T11:48:19.860Z,44.40
2018-08-18T11:50:49.273Z,44.40
2018-08-18T11:53:17.994Z,43.80
2018-08-18T11:55:46.383Z,44.00
2018-08-18T11:58:16.227Z,43.80
2018-08-18T12:00:54.844Z,43.80
2018-08-18T12:03:26.535Z,43.40
2018-08-18T12:05:55.786Z,42.90
2018-08-18T12:08:25.367Z,42.40
2018-08-18T12:13:40.808Z,42.30
2018-08-18T12:16:10.904Z,43.30
2018-08-18T12:18:40.810Z,43.80
2018-08-18T12:21:10.494Z,44.00
2018-08-18T12:23:39.945Z,44.60
2018-08-18T12:26:13.483Z,44.30
2018-08-18T12:28:45.765Z,43.70
2018-08-18T12:31:29.074Z,43.70
2018-08-18T12:33:57.415Z,42.70
2018-08-18T12:36:26.033Z,42.60
2018-08-18T12:38:58.741Z,42.10
2018-08-18T12:41:27.509Z,41.20
2018-08-18T12:43:57.418Z,40.60
2018-08-18T12:46:35.039Z,39.70
2018-08-18T12:49:04.749Z,39.70
2018-08-18T12:51:39.356Z,40.30
2018-08-18T12:54:07.819Z,41.00
2018-08-18T12:56:36.346Z,41.80
2018-08-18T12:59:06.037Z,41.80
2018-08-18T13:01:47.717Z,43.10
2018-08-18T13:04:23.324Z,44.40
2018-08-18T13:06:53.392Z,45.00
2018-08-18T13:09:24.151Z,45.00
2018-08-18T13:11:54.125Z,45.80
2018-08-18T13:14:25.163Z,44.70
2018-08-18T13:16:54.056Z,44.20
2018-08-18T13:19:24.117Z,43.60
2018-08-18T13:21:52.861Z,43.70
2018-08-18T13:24:21.670Z,44.90
2018-08-18T13:26:50.167Z,44.80
2018-08-18T13:29:19.161Z,45.30
2018-08-18T13:31:49.650Z,46.30
2018-08-18T13:34:18.895Z,47.30
2018-08-18T13:36:47.841Z,47.00
2018-08-18T13:39:18.608Z,46.20
2018-08-18T13:41:48.082Z,45.70
2018-08-18T13:44:23.570Z,44.30
2018-08-18T13:46:53.484Z,43.40
2018-08-18T13:49:25.386Z,41.20
2018-08-18T13:51:54.023Z,40.40
2018-08-18T13:54:22.716Z,40.50
2018-08-18T13:56:56.093Z,39.90
2018-08-18T13:59:46.832Z,39.10
2018-08-18T14:02:15.525Z,38.60
2018-08-18T14:04:44.607Z,37.10
2018-08-18T14:07:13.961Z,36.00
2018-08-18T14:09:51.433Z,36.10
2018-08-18T14:12:25.165Z,36.90
2018-08-18T14:14:56.038Z,37.70
2018-08-18T14:17:24.507Z,38.10
2018-08-18T14:19:52.979Z,39.70
2018-08-18T14:22:22.544Z,41.00
2018-08-18T14:24:55.580Z,41.10
2018-08-18T14:27:24.473Z,41.50
2018-08-18T14:29:53.049Z,41.80
2018-08-18T14:35:12.674Z,38.10
2018-08-18T14:40:48.649Z,35.80
2018-08-18T14:43:23.289Z,35.70
2018-08-18T14:45:51.955Z,36.10
2018-08-18T14:48:20.480Z,36.60
2018-08-18T14:50:50.163Z,37.70
2018-08-18T14:53:25.176Z,38.50
2018-08-18T14:55:54.032Z,39.50
2018-08-18T14:58:38.184Z,40.30
2018-08-18T15:01:20.744Z,40.00
2018-08-18T15:03:56.010Z,39.80
2018-08-18T15:06:27.495Z,39.30
2018-08-18T15:08:56.923Z,39.70
2018-08-18T15:11:25.440Z,39.80
2018-08-18T15:13:57.924Z,41.30
2018-08-18T15:16:26.311Z,42.60
2018-08-18T15:18:55.166Z,43.40
2018-08-18T15:21:23.764Z,44.10
2018-08-18T15:23:52.795Z,44.40
2018-08-18T15:26:21.368Z,44.60
2018-08-18T15:28:49.651Z,45.10
2018-08-18T15:31:17.860Z,45.10
2018-08-18T15:33:46.075Z,45.50
2018-08-18T15:36:25.897Z,46.30
2018-08-18T15:38:54.091Z,46.40
2018-08-18T15:41:23.948Z,46.60
2018-08-18T15:43:52.467Z,46.10
2018-08-18T15:46:22.076Z,46.00
2018-08-18T15:48:51.657Z,44.90
2018-08-18T15:51:20.049Z,43.60
2018-08-18T15:53:56.471Z,42.30
2018-08-18T15:56:25.602Z,40.40
2018-08-18T15:58:54.609Z,39.10
2018-08-18T16:01:25.241Z,38.50
2018-08-18T16:03:54.661Z,37.40
2018-08-18T16:06:23.139Z,37.30
2018-08-18T16:08:52.014Z,37.20
2018-08-18T16:11:20.440Z,36.80
2018-08-18T16:13:49.725Z,36.00
2018-08-18T16:16:17.967Z,36.00
2018-08-18T16:18:46.758Z,36.30
2018-08-18T16:21:20.380Z,36.30
2018-08-18T16:23:49.771Z,36.60
2018-08-18T16:26:18.210Z,36.70
2018-08-18T16:28:49.006Z,36.60
2018-08-18T16:31:17.847Z,36.80
2018-08-18T16:33:52.341Z,37.00
2018-08-18T16:36:20.757Z,37.20
2018-08-18T16:38:50.275Z,37.70
2018-08-18T16:44:13.202Z,38.90
2018-08-18T16:46:41.430Z,40.20
2018-08-18T16:49:09.786Z,41.40
2018-08-18T16:51:39.293Z,42.30
2018-08-18T16:54:19.910Z,43.00
2018-08-18T16:56:48.417Z,43.90
2018-08-18T16:59:16.710Z,45.30
2018-08-18T17:01:44.993Z,45.70
2018-08-18T17:04:17.424Z,46.30
2018-08-18T17:06:45.666Z,46.40
2018-08-18T17:09:23.929Z,47.10
2018-08-18T17:12:03.861Z,47.60
2018-08-18T17:14:32.020Z,48.00
2018-08-18T17:17:00.228Z,48.20
2018-08-18T17:19:28.538Z,48.50
2018-08-18T17:21:57.031Z,48.40
2018-08-18T17:24:25.297Z,48.80
2018-08-18T17:26:53.562Z,49.50
2018-08-18T17:29:22.921Z,49.50
2018-08-18T17:31:51.191Z,50.30
2018-08-18T17:34:19.554Z,50.60
2018-08-18T17:36:47.872Z,51.20
2018-08-18T17:39:17.550Z,52.00
2018-08-18T17:41:45.790Z,52.60
2018-08-18T17:44:14.047Z,52.80
2018-08-18T17:46:48.185Z,53.80
2018-08-18T17:49:16.668Z,54.50
2018-08-18T17:52:06.365Z,54.60
2018-08-18T17:54:35.287Z,55.50
2018-08-18T17:57:03.866Z,55.90
2018-08-18T17:59:32.209Z,56.70
2018-08-18T18:02:16.524Z,57.70
2018-08-18T18:04:47.596Z,58.00
2018-08-18T18:07:15.818Z,58.40
2018-08-18T18:09:44.249Z,58.80
2018-08-18T18:12:29.462Z,59.30
2018-08-18T18:14:57.663Z,59.70
2018-08-18T18:17:26.328Z,60.50
2018-08-18T18:19:57.116Z,61.70
2018-08-18T18:22:28.946Z,62.50
2018-08-18T18:24:57.306Z,63.50
2018-08-18T18:27:25.621Z,63.50
2018-08-18T18:29:54.124Z,64.00
2018-08-18T18:32:23.251Z,65.20
2018-08-18T18:34:52.928Z,65.50
2018-08-18T18:37:21.481Z,66.50
2018-08-18T18:40:01.613Z,67.20
2018-08-18T18:42:29.906Z,68.00
2018-08-18T18:45:02.487Z,68.50
2018-08-18T18:47:30.791Z,69.10
2018-08-18T18:49:59.207Z,69.20
2018-08-18T18:52:27.602Z,69.90
2018-08-18T18:54:57.579Z,70.70
2018-08-18T18:57:26.132Z,71.20
2018-08-18T18:59:57.728Z,71.60
2018-08-18T19:02:34.046Z,71.80
2018-08-18T19:05:12.806Z,72.20
2018-08-18T19:07:41.308Z,72.90
2018-08-18T19:10:12.122Z,73.90
2018-08-18T19:12:41.587Z,74.40
2018-08-18T19:15:09.828Z,75.20
2018-08-18T19:17:38.080Z,76.50
2018-08-18T19:20:17.485Z,77.30
2018-08-18T19:22:45.934Z,77.90
2018-08-18T19:25:14.254Z,79.00
2018-08-18T19:27:42.565Z,79.50
2018-08-18T19:30:12.131Z,80.10
2018-08-18T19:32:40.723Z,80.70
2018-08-18T19:35:09.536Z,81.20
2018-08-18T19:37:43.213Z,82.50
2018-08-18T19:40:11.462Z,83.70
2018-08-18T19:42:39.714Z,85.40
2018-08-18T19:45:08.131Z,86.70
2018-08-18T19:47:37.591Z,88.20
2018-08-18T19:50:07.129Z,89.30
2018-08-18T19:52:35.477Z,90.00
2018-08-18T19:55:03.793Z,90.40
2018-08-18T19:57:37.366Z,90.30
2018-08-18T20:00:13.608Z,90.30
2018-08-18T20:02:50.188Z,90.90
2018-08-18T20:05:19.795Z,91.40
2018-08-18T20:07:48.154Z,91.60
2018-08-18T20:10:16.639Z,91.90
2018-08-18T20:12:45.181Z,92.20
2018-08-18T20:15:13.868Z,92.50
2018-08-18T20:17:43.022Z,92.20
2018-08-18T20:20:11.361Z,91.90
2018-08-18T20:22:39.854Z,91.90
2018-08-18T20:25:08.317Z,91.80
2018-08-18T20:27:36.727Z,92.40
2018-08-18T20:30:05.318Z,92.00
2018-08-18T20:32:33.762Z,92.20
2018-08-18T20:35:03.046Z,92.50
2018-08-18T20:37:31.334Z,92.70
2018-08-18T20:39:59.598Z,92.70
2018-08-18T20:42:33.381Z,92.60
2018-08-18T20:45:01.790Z,92.40
2018-08-18T20:47:32.422Z,92.30
2018-08-18T20:50:01.041Z,92.30
2018-08-18T20:52:29.635Z,92.40
2018-08-18T20:54:58.597Z,92.60
2018-08-18T20:57:26.979Z,92.90
2018-08-18T20:59:55.420Z,93.10
2018-08-18T21:02:24.058Z,93.40
2018-08-18T21:04:58.469Z,93.60
2018-08-18T21:07:28.417Z,93.50
2018-08-18T21:09:57.147Z,93.40
2018-08-18T21:12:33.504Z,93.90
2018-08-18T21:15:02.774Z,94.10
2018-08-18T21:17:31.635Z,94.20
2018-08-18T21:20:00.090Z,93.90
2018-08-18T21:22:30.080Z,93.70
2018-08-18T21:24:58.786Z,94.00
2018-08-18T21:27:26.980Z,93.90
2018-08-18T21:29:56.281Z,93.90
2018-08-18T21:32:25.962Z,94.00
2018-08-18T21:34:54.429Z,93.90
2018-08-18T21:37:23.157Z,94.00
2018-08-18T21:39:51.982Z,94.10
2018-08-18T21:42:20.531Z,94.20
2018-08-18T21:44:48.913Z,94.20
2018-08-18T21:47:18.330Z,94.30
2018-08-18T21:49:47.474Z,94.30
2018-08-18T21:52:16.485Z,94.50
2018-08-18T21:54:45.395Z,94.40
2018-08-18T21:57:13.886Z,94.20
2018-08-18T21:59:52.380Z,94.10
2018-08-18T22:02:32.895Z,94.30
2018-08-18T22:05:01.527Z,93.90
2018-08-18T22:07:34.861Z,93.90
2018-08-18T22:10:03.122Z,93.80
2018-08-18T22:12:31.270Z,93.80
2018-08-18T22:15:00.310Z,93.70
2018-08-18T22:17:28.582Z,93.70
2018-08-18T22:19:56.814Z,93.70
2018-08-18T22:22:28.143Z,93.90
2018-08-18T22:24:56.886Z,94.00
2018-08-18T22:27:25.342Z,94.10
2018-08-18T22:29:53.744Z,94.00
2018-08-18T22:32:23.545Z,94.00
2018-08-18T22:34:52.438Z,94.10
2018-08-18T22:37:20.663Z,94.40
2018-08-18T22:39:48.802Z,94.50
2018-08-18T22:42:16.978Z,94.90
2018-08-18T22:44:45.150Z,94.80
2018-08-18T22:47:13.326Z,94.70
2018-08-18T22:49:41.494Z,94.70
2018-08-18T22:52:09.983Z,94.60
2018-08-18T22:54:38.136Z,94.70
2018-08-18T22:57:06.305Z,94.60
2018-08-18T22:59:34.578Z,94.70
2018-08-18T23:02:02.878Z,94.70
2018-08-18T23:04:35.274Z,94.90
2018-08-18T23:07:04.469Z,95.30
2018-08-18T23:09:32.915Z,95.60
2018-08-18T23:12:03.454Z,95.90
2018-08-18T23:14:33.817Z,96.30
2018-08-18T23:17:02.290Z,96.60
2018-08-18T23:19:32.022Z,96.70
2018-08-18T23:22:00.392Z,96.80
2018-08-18T23:24:32.089Z,97.00
2018-08-18T23:27:00.623Z,97.10
2018-08-18T23:29:28.853Z,97.10
2018-08-18T23:31:57.209Z,97.40
2018-08-18T23:34:25.545Z,97.30
2018-08-18T23:36:54.418Z,97.70
2018-08-18T23:39:22.705Z,98.00
2018-08-18T23:41:57.290Z,98.20
2018-08-18T23:44:25.564Z,98.30
2018-08-18T23:46:53.724Z,98.40
2018-08-18T23:49:21.900Z,98.40
2018-08-18T23:51:50.263Z,98.50
2018-08-18T23:54:22.390Z,98.60
2018-08-18T23:56:50.553Z,98.20
2018-08-18T23:59:19.650Z,98.50
